Time;durP1;ratioP1;P1;durP2;ratioP2;P2;SDS_P1;SDS_P2;PMS_P1;PMS_P2;Temp;Humidity;BMP_temperature;BMP_pressure;BME280_temperature;BME280_humidity;BME280_pressure;Samples;Min_cycle;Max_cycle;Signal;HPM_P1;HPM_P2
2023/06/15 00:00:44;;;;;;;5.70;2.33;;;15.80;79.00;;;;;;5049015;28;20619;-67
2023/06/15 00:03:10;;;;;;;5.17;2.73;;;15.80;78.80;;;;;;5035345;28;20498;-67
2023/06/15 00:05:36;;;;;;;5.03;2.07;;;15.70;79.30;;;;;;5051783;28;20280;-67
2023/06/15 00:08:02;;;;;;;4.20;1.83;;;15.70;79.10;;;;;;5051269;28;20045;-67
2023/06/15 00:10:27;;;;;;;4.80;2.07;;;15.70;79.90;;;;;;5068042;28;20029;-67
2023/06/15 00:12:53;;;;;;;5.63;2.30;;;15.60;79.40;;;;;;5051229;28;20358;-67
2023/06/15 00:15:19;;;;;;;8.57;2.50;;;15.60;79.40;;;;;;5051216;28;20033;-67
2023/06/15 00:17:46;;;;;;;6.87;2.30;;;15.60;79.60;;;;;;5052026;28;20429;-67
2023/06/15 00:20:12;;;;;;;6.27;2.43;;;15.60;80.00;;;;;;5050627;28;20305;-67
2023/06/15 00:22:41;;;;;;;3.73;2.13;;;15.60;80.60;;;;;;5051164;28;20775;-66
2023/06/15 00:25:07;;;;;;;6.67;2.43;;;15.50;80.20;;;;;;5049024;28;20048;-66
2023/06/15 00:27:35;;;;;;;8.80;2.43;;;15.50;80.40;;;;;;5050884;28;20309;-66
2023/06/15 00:30:04;;;;;;;7.73;2.63;;;15.50;80.40;;;;;;5051238;28;20658;-67
2023/06/15 00:32:30;;;;;;;4.20;2.10;;;15.50;80.10;;;;;;5034388;28;20287;-67
2023/06/15 00:34:56;;;;;;;7.83;2.90;;;15.50;80.40;;;;;;5051262;28;20293;-67
2023/06/15 00:37:22;;;;;;;6.17;2.67;;;15.50;80.10;;;;;;5051444;28;20677;-67
2023/06/15 00:39:48;;;;;;;4.73;2.40;;;15.40;80.00;;;;;;5050317;28;20049;-67
2023/06/15 00:42:13;;;;;;;3.67;2.00;;;15.40;80.20;;;;;;5050941;28;20086;-67
2023/06/15 00:44:39;;;;;;;6.33;2.83;;;15.40;80.90;;;;;;5050151;28;20119;-67
2023/06/15 00:47:05;;;;;;;3.80;2.20;;;15.40;80.20;;;;;;5035025;28;20102;-67
2023/06/15 00:49:32;;;;;;;4.73;2.60;;;15.30;80.70;;;;;;5034354;28;20048;-67
2023/06/15 00:51:59;;;;;;;7.13;2.50;;;15.30;80.10;;;;;;5051759;28;20355;-66
2023/06/15 00:54:25;;;;;;;4.80;2.53;;;15.30;80.20;;;;;;5050461;28;20290;-66
2023/06/15 00:56:52;;;;;;;5.50;2.27;;;15.30;80.40;;;;;;5051177;28;20827;-66
2023/06/15 00:59:18;;;;;;;8.47;2.73;;;15.30;80.10;;;;;;5050649;28;20299;-66
2023/06/15 01:01:47;;;;;;;5.90;2.60;;;15.30;80.20;;;;;;5050819;28;20341;-66
2023/06/15 01:04:14;;;;;;;6.10;2.57;;;15.20;80.10;;;;;;5067372;28;20643;-66
2023/06/15 01:06:42;;;;;;;7.87;2.50;;;15.20;80.00;;;;;;5041352;28;20307;-66
2023/06/15 01:09:11;;;;;;;6.77;2.60;;;15.20;80.40;;;;;;5050302;28;20286;-66
2023/06/15 01:11:38;;;;;;;3.50;2.67;;;15.10;80.00;;;;;;5033212;28;20279;-66
2023/06/15 01:14:06;;;;;;;3.87;2.90;;;15.10;80.10;;;;;;5049604;28;20362;-66
2023/06/15 01:16:39;;;;;;;5.33;2.77;;;15.10;80.40;;;;;;5049369;28;20287;-66
2023/06/15 01:19:13;;;;;;;9.73;3.00;;;15.10;80.30;;;;;;5048564;28;20315;-66
2023/06/15 01:21:39;;;;;;;8.00;3.00;;;15.10;80.10;;;;;;5049708;28;20287;-66
2023/06/15 01:24:33;;;;;;;5.63;3.30;;;15.10;80.00;;;;;;5050280;28;20651;-66
2023/06/15 01:27:04;;;;;;;5.70;2.60;;;15.10;80.20;;;;;;5033431;28;20569;-66
2023/06/15 01:29:34;;;;;;;5.07;3.00;;;15.10;80.50;;;;;;5050518;28;20732;-66
2023/06/15 01:32:02;;;;;;;5.27;3.03;;;15.10;80.20;;;;;;5049638;28;20311;-66
2023/06/15 01:34:28;;;;;;;9.77;3.40;;;15.10;80.40;;;;;;5049788;28;20439;-66
2023/06/15 01:36:53;;;;;;;7.23;3.10;;;15.00;80.20;;;;;;5049335;28;20381;-66
2023/06/15 01:39:19;;;;;;;7.43;3.30;;;15.00;80.10;;;;;;5049983;28;20044;-66
2023/06/15 01:41:45;;;;;;;4.10;2.97;;;15.00;80.20;;;;;;5049238;28;20041;-66
2023/06/15 01:44:12;;;;;;;4.70;2.87;;;15.00;80.50;;;;;;5049388;28;20284;-67
2023/06/15 01:46:38;;;;;;;8.17;3.23;;;14.90;80.40;;;;;;5045123;28;20036;-66
2023/06/15 01:49:04;;;;;;;6.00;2.80;;;14.90;80.40;;;;;;5032504;28;20298;-66
2023/06/15 01:51:31;;;;;;;7.47;3.07;;;14.90;80.40;;;;;;5049036;28;20481;-66
2023/06/15 01:53:57;;;;;;;7.63;3.03;;;14.90;80.60;;;;;;5049664;28;20366;-66
2023/06/15 01:56:23;;;;;;;5.43;2.50;;;14.90;80.60;;;;;;5048855;28;20310;-66
2023/06/15 01:58:49;;;;;;;6.60;2.87;;;14.90;80.40;;;;;;5049159;28;20291;-66
2023/06/15 02:01:15;;;;;;;5.47;2.77;;;14.90;80.50;;;;;;5049008;28;20033;-66
2023/06/15 02:03:40;;;;;;;10.83;3.10;;;14.90;80.40;;;;;;5049229;28;20110;-66
2023/06/15 02:06:06;;;;;;;8.50;2.90;;;14.90;80.30;;;;;;5048776;28;20048;-66
2023/06/15 02:08:32;;;;;;;8.67;3.23;;;14.90;80.40;;;;;;5048974;28;20033;-66
2023/06/15 02:10:58;;;;;;;4.57;2.77;;;14.80;80.20;;;;;;5049048;28;20413;-66
2023/06/15 02:13:23;;;;;;;6.83;3.07;;;14.80;80.30;;;;;;5049184;28;20290;-67
2023/06/15 02:15:49;;;;;;;6.40;2.73;;;14.80;80.10;;;;;;5048913;28;20041;-66
2023/06/15 02:18:16;;;;;;;10.40;2.70;;;14.80;80.10;;;;;;5047952;28;20063;-66
2023/06/15 02:20:43;;;;;;;5.27;2.40;;;14.80;80.10;;;;;;5047654;28;20425;-66
2023/06/15 02:23:10;;;;;;;7.30;3.43;;;14.80;80.00;;;;;;5048815;28;20352;-66
2023/06/15 02:25:36;;;;;;;5.53;2.93;;;14.80;80.20;;;;;;5032020;28;20290;-66
2023/06/15 02:28:02;;;;;;;7.00;3.30;;;14.80;80.50;;;;;;5048724;28;20310;-66
2023/06/15 02:30:28;;;;;;;7.53;2.73;;;14.80;80.30;;;;;;5048423;28;20291;-66
2023/06/15 02:32:55;;;;;;;7.23;3.20;;;14.70;80.50;;;;;;5048411;28;20288;-66
2023/06/15 02:35:21;;;;;;;7.83;3.33;;;14.80;80.40;;;;;;5047881;28;20641;-66
2023/06/15 02:37:47;;;;;;;5.53;3.70;;;14.70;80.40;;;;;;5047819;28;20511;-66
2023/06/15 02:40:13;;;;;;;5.23;3.23;;;14.70;80.40;;;;;;5047899;28;20348;-66
2023/06/15 02:42:39;;;;;;;6.00;3.23;;;14.60;80.90;;;;;;5031458;28;20044;-66
2023/06/15 02:45:09;;;;;;;6.03;3.10;;;14.60;80.90;;;;;;5049069;28;20794;-66
2023/06/15 02:47:36;;;;;;;10.37;4.00;;;14.60;81.00;;;;;;5031447;28;20818;-66
2023/06/15 02:50:05;;;;;;;6.03;3.40;;;14.50;81.10;;;;;;5031037;28;20853;-66
2023/06/15 02:52:31;;;;;;;5.90;3.47;;;14.50;81.20;;;;;;5047565;28;20291;-66
2023/06/15 02:55:01;;;;;;;13.40;3.50;;;14.50;81.80;;;;;;5048077;28;20293;-66
2023/06/15 02:57:27;;;;;;;6.93;3.27;;;14.50;81.60;;;;;;5047391;28;20044;-67
2023/06/15 02:59:53;;;;;;;5.33;3.33;;;14.40;81.70;;;;;;5048069;28;20366;-66
2023/06/15 03:02:20;;;;;;;4.90;3.50;;;14.40;82.10;;;;;;5047701;28;20079;-66
2023/06/15 03:04:50;;;;;;;7.20;3.13;;;14.40;82.00;;;;;;5032324;28;20759;-66
2023/06/15 03:07:22;;;;;;;9.43;3.70;;;14.40;82.10;;;;;;5031914;28;20303;-67
2023/06/15 03:09:50;;;;;;;7.93;3.40;;;14.40;82.30;;;;;;5048451;28;20279;-66
2023/06/15 03:12:16;;;;;;;8.20;3.33;;;14.30;82.50;;;;;;5048098;28;20279;-66
2023/06/15 03:14:50;;;;;;;6.93;3.53;;;14.30;82.30;;;;;;5030537;28;20286;-66
2023/06/15 03:17:16;;;;;;;7.23;3.53;;;14.40;82.40;;;;;;5049343;28;20287;-66
2023/06/15 03:19:44;;;;;;;9.23;3.40;;;14.40;82.60;;;;;;5048281;28;20352;-66
2023/06/15 03:22:10;;;;;;;6.07;3.53;;;14.40;82.80;;;;;;5046248;28;20379;-66
2023/06/15 03:24:36;;;;;;;6.77;4.17;;;14.50;82.80;;;;;;5048536;28;20298;-66
2023/06/15 03:27:06;;;;;;;8.73;3.60;;;14.50;82.90;;;;;;5047335;28;20769;-66
2023/06/15 03:29:36;;;;;;;4.27;2.80;;;14.50;82.60;;;;;;5048732;28;20375;-66
2023/06/15 03:32:09;;;;;;;5.07;3.27;;;14.50;82.60;;;;;;5028715;28;20279;-66
2023/06/15 03:34:38;;;;;;;7.10;3.40;;;14.50;82.80;;;;;;5047512;28;20283;-66
2023/06/15 03:37:05;;;;;;;7.53;3.47;;;14.50;82.80;;;;;;5048108;28;20291;-66
2023/06/15 03:39:31;;;;;;;6.97;3.50;;;14.50;82.80;;;;;;5048001;28;20283;-66
2023/06/15 03:41:57;;;;;;;5.73;3.20;;;14.50;82.90;;;;;;5047274;28;20283;-66
2023/06/15 03:44:22;;;;;;;7.30;3.00;;;14.50;83.10;;;;;;5048118;28;20045;-67
2023/06/15 03:46:48;;;;;;;5.70;3.47;;;14.60;83.20;;;;;;5048080;28;20128;-67
2023/06/15 03:49:14;;;;;;;8.73;4.07;;;14.60;83.50;;;;;;5048021;28;20041;-66
2023/06/15 03:51:40;;;;;;;7.20;3.83;;;14.60;83.50;;;;;;5047036;28;20033;-66
2023/06/15 03:54:05;;;;;;;6.77;3.23;;;14.60;83.80;;;;;;5047672;28;20386;-66
2023/06/15 03:56:32;;;;;;;5.03;3.60;;;14.60;83.50;;;;;;5047370;28;20532;-66
2023/06/15 03:58:58;;;;;;;5.93;3.73;;;14.60;83.50;;;;;;5065010;28;20043;-66
2023/06/15 04:01:24;;;;;;;5.47;3.47;;;14.70;83.70;;;;;;5047974;28;20318;-66
2023/06/15 04:03:54;;;;;;;5.30;4.03;;;14.70;83.70;;;;;;5031319;28;20767;-67
2023/06/15 04:06:23;;;;;;;7.03;4.10;;;14.70;83.50;;;;;;5043018;28;20318;-66
2023/06/15 04:08:48;;;;;;;7.53;3.50;;;14.80;83.60;;;;;;5049952;28;20284;-66
2023/06/15 04:11:15;;;;;;;6.23;4.20;;;14.80;83.80;;;;;;5051818;28;20286;-66
2023/06/15 04:13:41;;;;;;;7.57;3.60;;;14.90;83.60;;;;;;5051149;28;20099;-66
2023/06/15 04:16:07;;;;;;;6.10;3.90;;;14.90;83.70;;;;;;5051209;28;20309;-66
2023/06/15 04:18:32;;;;;;;9.03;3.80;;;14.90;83.80;;;;;;5050666;28;20033;-67
2023/06/15 04:20:58;;;;;;;5.80;3.53;;;15.00;83.50;;;;;;5051101;28;20370;-67
2023/06/15 04:23:24;;;;;;;7.17;3.53;;;15.10;83.60;;;;;;5050578;28;20463;-67
2023/06/15 04:25:49;;;;;;;9.37;3.70;;;15.20;83.70;;;;;;5067935;28;20036;-67
2023/06/15 04:28:16;;;;;;;5.07;3.50;;;15.20;83.30;;;;;;5035061;28;20087;-66
2023/06/15 04:30:46;;;;;;;7.33;3.40;;;15.30;83.00;;;;;;5051278;28;20047;-66
2023/06/15 04:33:13;;;;;;;8.60;3.77;;;15.40;82.90;;;;;;5050853;28;20286;-66
2023/06/15 04:35:46;;;;;;;10.63;3.53;;;15.60;83.20;;;;;;5050065;28;20290;-66
2023/06/15 04:38:14;;;;;;;7.10;3.63;;;16.20;82.70;;;;;;5050248;28;20670;-66
2023/06/15 04:40:46;;;;;;;8.77;4.00;;;17.10;80.60;;;;;;5051381;28;20306;-66
2023/06/15 04:43:12;;;;;;;5.53;3.17;;;17.80;77.30;;;;;;5034082;28;20754;-66
2023/06/15 04:45:37;;;;;;;4.40;2.63;;;18.40;74.80;;;;;;5034424;28;20337;-66
2023/06/15 04:48:03;;;;;;;7.37;3.40;;;18.80;73.70;;;;;;5063066;28;20045;-66
2023/06/15 04:50:32;;;;;;;7.47;3.53;;;19.30;71.90;;;;;;5049758;28;20505;-66
2023/06/15 04:52:58;;;;;;;6.57;3.10;;;19.90;70.70;;;;;;5050761;28;20286;-67
2023/06/15 04:55:24;;;;;;;5.87;3.10;;;20.40;69.40;;;;;;5051088;28;20306;-67
2023/06/15 04:57:50;;;;;;;6.77;3.23;;;21.00;67.70;;;;;;5051244;28;20272;-67
2023/06/15 05:00:16;;;;;;;5.80;3.70;;;21.50;65.40;;;;;;5051693;28;20041;-67
2023/06/15 05:02:42;;;;;;;7.93;3.20;;;22.10;63.50;;;;;;5050788;28;20041;-67
2023/06/15 05:05:08;;;;;;;6.03;3.13;;;22.50;60.70;;;;;;5030882;28;20628;-67
2023/06/15 05:07:34;;;;;;;4.93;3.33;;;22.80;59.70;;;;;;5050670;28;20029;-67
2023/06/15 05:10:00;;;;;;;5.57;3.50;;;23.20;59.00;;;;;;5034125;28;20363;-67
2023/06/15 05:12:26;;;;;;;6.53;3.30;;;23.60;57.70;;;;;;5050673;28;20407;-67
2023/06/15 05:14:52;;;;;;;8.13;3.17;;;24.00;56.50;;;;;;5034185;28;20523;-67
2023/06/15 05:17:17;;;;;;;4.93;3.10;;;24.40;55.20;;;;;;5067543;28;20056;-67
2023/06/15 05:19:43;;;;;;;6.77;3.40;;;24.70;54.40;;;;;;5050582;28;20497;-67
2023/06/15 05:22:09;;;;;;;9.17;3.90;;;24.90;53.50;;;;;;5034018;28;20073;-67
2023/06/15 05:24:35;;;;;;;6.13;2.67;;;25.10;53.10;;;;;;5050127;28;20097;-67
2023/06/15 05:27:02;;;;;;;5.97;3.00;;;25.30;52.70;;;;;;5051002;28;20095;-67
2023/06/15 05:29:28;;;;;;;10.13;3.70;;;25.50;51.70;;;;;;5050709;28;20127;-66
2023/06/15 05:31:55;;;;;;;5.07;2.97;;;25.70;51.40;;;;;;5049903;28;20557;-66
2023/06/15 05:34:21;;;;;;;6.20;2.93;;;25.80;50.60;;;;;;5033454;28;20112;-66
2023/06/15 05:36:47;;;;;;;4.43;2.80;;;25.80;49.30;;;;;;5050912;28;20733;-66
2023/06/15 05:39:13;;;;;;;7.70;3.10;;;25.70;49.00;;;;;;5050517;28;20127;-66
2023/06/15 05:41:38;;;;;;;6.07;2.63;;;25.60;50.00;;;;;;5049090;28;20061;-66
2023/06/15 05:44:04;;;;;;;4.30;2.73;;;25.80;49.00;;;;;;5049786;28;20492;-66
2023/06/15 05:46:30;;;;;;;7.53;2.73;;;25.90;48.80;;;;;;5032957;28;20101;-66
2023/06/15 05:48:56;;;;;;;6.37;2.80;;;26.10;48.70;;;;;;5049874;28;20041;-66
2023/06/15 05:51:21;;;;;;;4.33;2.30;;;26.50;48.10;;;;;;5046318;28;20041;-66
2023/06/15 05:53:47;;;;;;;3.70;2.47;;;26.60;47.70;;;;;;5032092;28;20240;-66
2023/06/15 05:56:13;;;;;;;7.53;3.13;;;26.30;47.50;;;;;;5032523;28;20354;-66
2023/06/15 05:58:38;;;;;;;6.43;2.67;;;25.60;48.20;;;;;;5050034;28;20032;-66
2023/06/15 06:01:05;;;;;;;5.63;2.53;;;25.10;49.90;;;;;;5033284;28;20040;-66
2023/06/15 06:03:31;;;;;;;7.27;2.97;;;25.40;49.90;;;;;;5049504;28;20132;-66
2023/06/15 06:05:56;;;;;;;5.53;2.90;;;25.80;49.00;;;;;;5066002;28;20116;-66
2023/06/15 06:08:23;;;;;;;4.80;2.97;;;26.00;48.60;;;;;;5049051;28;20055;-66
2023/06/15 06:10:49;;;;;;;7.57;3.43;;;26.20;48.20;;;;;;5049442;28;20047;-66
2023/06/15 06:13:15;;;;;;;7.93;3.13;;;26.50;47.60;;;;;;5065540;28;20037;-67
2023/06/15 06:15:41;;;;;;;6.70;2.60;;;26.50;47.50;;;;;;5033258;28;20040;-67
2023/06/15 06:18:06;;;;;;;8.10;3.30;;;26.70;47.40;;;;;;5032688;28;20116;-67
2023/06/15 06:20:32;;;;;;;9.20;3.57;;;26.70;47.30;;;;;;5032490;28;20151;-67
2023/06/15 06:22:58;;;;;;;6.50;3.00;;;26.60;47.40;;;;;;5049067;28;20080;-67
2023/06/15 06:25:23;;;;;;;8.10;3.37;;;26.50;47.90;;;;;;5047681;28;20136;-67
2023/06/15 06:27:49;;;;;;;9.17;3.40;;;26.30;47.40;;;;;;5031989;28;20612;-67
2023/06/15 06:30:15;;;;;;;6.67;2.83;;;26.10;47.90;;;;;;5048865;28;20033;-67
2023/06/15 06:32:41;;;;;;;7.93;3.07;;;26.20;48.10;;;;;;5048670;28;20032;-67
2023/06/15 06:35:07;;;;;;;8.20;3.27;;;26.30;48.30;;;;;;5046740;28;20128;-67
2023/06/15 06:37:32;;;;;;;5.33;2.97;;;26.40;47.50;;;;;;5045252;28;20564;-67
2023/06/15 06:39:59;;;;;;;6.93;3.03;;;26.50;47.30;;;;;;5049275;28;20401;-67
2023/06/15 06:42:25;;;;;;;4.07;2.80;;;26.50;47.00;;;;;;5032376;28;20446;-67
2023/06/15 06:44:51;;;;;;;5.43;3.00;;;26.40;46.70;;;;;;5031872;28;20041;-67
2023/06/15 06:47:17;;;;;;;4.97;3.30;;;26.40;46.70;;;;;;5047871;28;20037;-67
2023/06/15 06:49:42;;;;;;;7.27;3.27;;;26.20;47.00;;;;;;5049050;28;20389;-67
2023/06/15 06:52:08;;;;;;;7.03;2.60;;;26.10;46.40;;;;;;5032087;28;20036;-67
2023/06/15 06:54:34;;;;;;;9.20;3.50;;;25.90;47.40;;;;;;5031963;28;20060;-67
2023/06/15 06:57:00;;;;;;;12.17;3.10;;;25.80;47.50;;;;;;5032412;28;20036;-67
2023/06/15 06:59:26;;;;;;;6.43;3.17;;;25.60;48.20;;;;;;5031544;28;20481;-67
2023/06/15 07:01:52;;;;;;;5.20;3.03;;;25.50;47.90;;;;;;5048986;28;20127;-67
2023/06/15 07:04:17;;;;;;;6.03;3.20;;;25.30;48.10;;;;;;5048171;28;20110;-67
2023/06/15 07:06:43;;;;;;;3.77;2.27;;;25.10;48.50;;;;;;5032372;28;20421;-67
2023/06/15 07:09:09;;;;;;;7.80;2.77;;;24.80;49.10;;;;;;5047879;28;20561;-67
2023/06/15 07:11:35;;;;;;;5.13;3.03;;;24.70;49.20;;;;;;5048800;28;20123;-67
2023/06/15 07:14:03;;;;;;;8.20;2.83;;;24.40;49.80;;;;;;5048124;28;20059;-67
2023/06/15 07:16:30;;;;;;;8.03;2.63;;;24.30;50.50;;;;;;5032330;28;20110;-67
2023/06/15 07:18:56;;;;;;;5.77;2.80;;;24.10;49.90;;;;;;5031702;28;20091;-67
2023/06/15 07:21:22;;;;;;;7.47;2.60;;;24.00;50.60;;;;;;5048111;28;20129;-67
2023/06/15 07:23:48;;;;;;;5.63;2.20;;;23.80;51.30;;;;;;5048579;28;20045;-67
2023/06/15 07:26:13;;;;;;;4.70;2.47;;;23.70;51.10;;;;;;5047943;28;20033;-67
2023/06/15 07:28:39;;;;;;;6.30;2.47;;;23.60;50.50;;;;;;5047161;28;20060;-67
2023/06/15 07:31:05;;;;;;;6.80;2.60;;;23.60;51.20;;;;;;5047697;28;20098;-67
2023/06/15 07:33:31;;;;;;;4.77;2.40;;;23.60;50.80;;;;;;5031200;28;20120;-67
2023/06/15 07:35:57;;;;;;;4.67;2.33;;;23.60;50.90;;;;;;5048876;28;20029;-67
2023/06/15 07:38:23;;;;;;;6.90;2.40;;;23.60;50.40;;;;;;5031684;28;20127;-67
2023/06/15 07:40:48;;;;;;;6.87;2.47;;;23.70;49.40;;;;;;5031920;28;20045;-67
2023/06/15 07:43:17;;;;;;;8.10;2.37;;;23.70;49.20;;;;;;5049612;28;20049;-67
2023/06/15 07:45:45;;;;;;;4.00;2.03;;;23.70;48.80;;;;;;5051542;28;20040;-67
2023/06/15 07:48:11;;;;;;;5.10;2.40;;;23.80;49.10;;;;;;5052241;28;20452;-67
2023/06/15 07:50:37;;;;;;;6.87;2.87;;;23.80;48.60;;;;;;5051779;28;20443;-67
2023/06/15 07:53:03;;;;;;;5.83;2.07;;;23.90;47.90;;;;;;5051778;28;20033;-67
2023/06/15 07:55:29;;;;;;;5.67;2.17;;;23.90;48.90;;;;;;5034799;28;20178;-67
2023/06/15 07:57:55;;;;;;;5.43;2.60;;;24.00;47.70;;;;;;5049217;28;20425;-67
2023/06/15 08:00:21;;;;;;;7.30;2.50;;;24.10;48.00;;;;;;5051472;28;20049;-67
2023/06/15 08:02:48;;;;;;;4.73;1.80;;;24.20;51.80;;;;;;5049265;28;20063;-67
2023/06/15 08:05:15;;;;;;;10.43;2.20;;;24.20;47.90;;;;;;5035365;28;20040;-67
2023/06/15 08:07:43;;;;;;;3.93;2.03;;;24.30;46.90;;;;;;5049969;28;20091;-67
2023/06/15 08:10:10;;;;;;;3.37;1.70;;;24.30;45.80;;;;;;5033481;28;20045;-67
2023/06/15 08:12:35;;;;;;;6.53;1.97;;;24.40;45.70;;;;;;5051474;28;20102;-67
2023/06/15 08:15:05;;;;;;;6.10;1.67;;;24.50;45.50;;;;;;5049766;28;20041;-67
2023/06/15 08:17:31;;;;;;;7.47;2.00;;;24.60;44.90;;;;;;5049893;28;20115;-67
2023/06/15 08:20:07;;;;;;;4.60;2.10;;;24.70;43.20;;;;;;5051530;28;20056;-67
2023/06/15 08:22:32;;;;;;;3.03;1.77;;;24.70;43.50;;;;;;5051724;28;20037;-67
2023/06/15 08:24:59;;;;;;;4.37;2.07;;;24.70;44.60;;;;;;5032967;28;20047;-67
2023/06/15 08:27:25;;;;;;;6.63;2.07;;;24.80;44.40;;;;;;5033965;28;20060;-67
2023/06/15 08:29:51;;;;;;;5.73;2.10;;;24.80;44.60;;;;;;5051377;28;20099;-67
2023/06/15 08:32:17;;;;;;;3.87;1.50;;;24.90;44.10;;;;;;5052036;28;20124;-67
2023/06/15 08:34:44;;;;;;;4.33;1.97;;;25.00;43.10;;;;;;5068640;28;20088;-67
2023/06/15 08:37:11;;;;;;;5.50;2.27;;;25.10;43.80;;;;;;5034489;28;20076;-67
2023/06/15 08:39:38;;;;;;;7.00;2.53;;;25.20;42.80;;;;;;5033426;28;20521;-67
2023/06/15 08:42:05;;;;;;;5.73;1.80;;;25.20;43.60;;;;;;5033345;28;20044;-67
2023/06/15 08:44:31;;;;;;;2.90;1.77;;;25.20;43.90;;;;;;5051144;28;20928;-67
2023/06/15 08:47:03;;;;;;;3.70;2.10;;;25.20;42.80;;;;;;5050303;28;20041;-67
2023/06/15 08:49:32;;;;;;;6.33;2.07;;;25.20;42.70;;;;;;5050000;28;20179;-67
2023/06/15 08:52:01;;;;;;;3.17;1.60;;;25.30;42.40;;;;;;5050130;28;20111;-67
2023/06/15 08:54:28;;;;;;;3.20;1.80;;;25.30;43.20;;;;;;5065292;28;20048;-67
2023/06/15 08:56:55;;;;;;;5.10;2.13;;;25.30;42.60;;;;;;5050998;28;20110;-67
2023/06/15 08:59:23;;;;;;;3.80;2.00;;;25.40;42.70;;;;;;5050413;28;20037;-67
2023/06/15 09:01:53;;;;;;;4.57;2.00;;;25.40;43.10;;;;;;5033776;28;20573;-67
2023/06/15 09:04:19;;;;;;;7.73;2.33;;;25.50;41.80;;;;;;5034358;28;20068;-67
2023/06/15 09:06:44;;;;;;;7.10;2.30;;;25.50;42.50;;;;;;5050783;28;20222;-67
2023/06/15 09:09:10;;;;;;;5.27;2.27;;;25.50;42.00;;;;;;5049960;28;20397;-67
2023/06/15 09:11:40;;;;;;;4.23;2.03;;;25.60;41.80;;;;;;5032115;28;20075;-67
2023/06/15 09:14:09;;;;;;;5.53;2.00;;;25.70;40.80;;;;;;5050916;28;20392;-67
2023/06/15 09:16:35;;;;;;;6.00;2.23;;;25.70;40.90;;;;;;5050826;28;20368;-67
2023/06/15 09:19:01;;;;;;;7.40;2.83;;;25.70;40.00;;;;;;5050482;28;20535;-67
2023/06/15 09:21:28;;;;;;;7.60;2.40;;;25.70;40.50;;;;;;5049875;28;20076;-67
2023/06/15 09:24:07;;;;;;;4.57;2.50;;;25.70;40.40;;;;;;5034521;28;20041;-67
2023/06/15 09:26:32;;;;;;;7.03;2.60;;;25.60;39.10;;;;;;5050974;28;20471;-67
2023/06/15 09:29:02;;;;;;;3.77;2.33;;;25.50;40.70;;;;;;5049282;28;20124;-67
2023/06/15 09:31:29;;;;;;;4.00;2.33;;;25.60;41.60;;;;;;5048216;28;20040;-67
2023/06/15 09:34:05;;;;;;;6.93;2.20;;;25.70;40.20;;;;;;5049862;28;20041;-67
2023/06/15 09:36:36;;;;;;;5.00;2.23;;;25.80;41.10;;;;;;5033642;28;20370;-67
2023/06/15 09:39:09;;;;;;;7.07;2.17;;;25.90;40.00;;;;;;5050863;28;20139;-67
2023/06/15 09:41:35;;;;;;;4.37;2.13;;;26.00;39.90;;;;;;5033027;28;20098;-68
2023/06/15 09:44:05;;;;;;;5.30;2.20;;;26.00;39.30;;;;;;5050103;28;20524;-68
2023/06/15 09:46:31;;;;;;;7.20;2.10;;;25.90;39.20;;;;;;5049819;28;20049;-68
2023/06/15 09:48:57;;;;;;;4.30;1.93;;;26.00;39.40;;;;;;5050022;28;20033;-68
2023/06/15 09:51:28;;;;;;;5.03;2.20;;;26.00;39.60;;;;;;5050132;28;20067;-68
2023/06/15 09:53:54;;;;;;;6.30;2.50;;;26.00;40.90;;;;;;5049548;28;20037;-68
2023/06/15 09:56:23;;;;;;;4.57;2.10;;;26.20;40.90;;;;;;5049954;28;20120;-68
2023/06/15 09:58:49;;;;;;;5.17;2.30;;;26.30;40.20;;;;;;5050868;28;20033;-68
2023/06/15 10:01:18;;;;;;;5.17;2.00;;;26.40;39.90;;;;;;5050591;28;20056;-68
2023/06/15 10:03:52;;;;;;;6.00;2.20;;;26.40;39.40;;;;;;5043893;28;20041;-68
2023/06/15 10:06:19;;;;;;;4.38;2.10;;;26.50;39.50;;;;;;5051450;28;20041;-68
2023/06/15 10:08:51;;;;;;;4.57;2.10;;;26.60;40.00;;;;;;5049916;28;20033;-68
2023/06/15 10:11:20;;;;;;;4.83;2.00;;;26.70;39.60;;;;;;5048539;28;20433;-68
2023/06/15 10:13:51;;;;;;;4.23;1.67;;;26.80;38.80;;;;;;5050178;28;20123;-68
2023/06/15 10:16:20;;;;;;;4.53;1.80;;;26.90;39.30;;;;;;5049439;28;20036;-68
2023/06/15 10:18:52;;;;;;;3.80;2.03;;;26.90;38.80;;;;;;5061918;28;20088;-68
2023/06/15 10:21:23;;;;;;;6.53;1.97;;;26.90;38.50;;;;;;5048791;28;20132;-68
2023/06/15 10:23:54;;;;;;;5.03;2.00;;;26.90;39.40;;;;;;5049134;28;20037;-68
2023/06/15 10:26:21;;;;;;;4.87;1.80;;;26.90;38.60;;;;;;5049330;28;20033;-68
2023/06/15 10:28:51;;;;;;;4.90;2.10;;;27.00;38.50;;;;;;5049298;28;20120;-68
2023/06/15 10:31:20;;;;;;;5.47;2.20;;;27.10;38.10;;;;;;5029356;28;20424;-68
2023/06/15 10:33:52;;;;;;;3.67;1.90;;;27.10;37.90;;;;;;5025959;28;20537;-68
2023/06/15 10:36:27;;;;;;;3.80;2.10;;;27.20;37.70;;;;;;5030880;28;20497;-68
2023/06/15 10:39:29;;;;;;;4.40;2.00;;;27.30;37.00;;;;;;5049543;28;20051;-68
2023/06/15 10:41:58;;;;;;;5.13;1.83;;;27.20;36.30;;;;;;5045548;28;20116;-68
2023/06/15 10:44:34;;;;;;;5.60;1.87;;;27.20;37.30;;;;;;5046697;28;20044;-68
2023/06/15 10:47:14;;;;;;;4.83;1.77;;;27.30;36.90;;;;;;5048174;28;20045;-68
2023/06/15 10:49:50;;;;;;;6.13;2.13;;;27.50;36.60;;;;;;5049606;28;20515;-68
2023/06/15 10:52:16;;;;;;;4.50;1.93;;;27.60;36.70;;;;;;5048982;28;20118;-68
2023/06/15 10:54:42;;;;;;;4.77;2.30;;;27.70;36.60;;;;;;5049063;28;20045;-68
2023/06/15 10:57:08;;;;;;;4.20;1.77;;;27.70;35.80;;;;;;5049071;28;20041;-68
2023/06/15 10:59:45;;;;;;;5.10;1.87;;;27.70;35.20;;;;;;5048730;28;20471;-68
2023/06/15 11:02:46;;;;;;;5.23;1.93;;;27.60;35.50;;;;;;5049306;28;20041;-68
2023/06/15 11:05:14;;;;;;;5.27;1.80;;;27.60;35.10;;;;;;5041272;28;20089;-68
2023/06/15 11:07:43;;;;;;;3.40;2.10;;;27.60;35.80;;;;;;5048294;28;20062;-68
2023/06/15 11:10:26;;;;;;;3.27;2.00;;;27.70;36.10;;;;;;5049608;28;20045;-68
2023/06/15 11:13:03;;;;;;;3.07;2.00;;;27.90;34.60;;;;;;5048205;28;20037;-68
2023/06/15 11:15:35;;;;;;;4.30;1.97;;;28.00;35.50;;;;;;5048725;28;20081;-68
2023/06/15 11:18:03;;;;;;;4.77;2.03;;;28.00;35.50;;;;;;5066599;28;20052;-68
2023/06/15 11:20:47;;;;;;;5.57;2.40;;;28.10;35.20;;;;;;5053401;28;20064;-68
2023/06/15 11:23:18;;;;;;;4.17;2.07;;;28.10;34.40;;;;;;5052908;28;20045;-68
2023/06/15 11:25:46;;;;;;;2.60;2.10;;;28.20;34.80;;;;;;5052425;28;20060;-68
2023/06/15 11:28:15;;;;;;;5.63;2.27;;;28.10;35.00;;;;;;5035867;28;20049;-68
2023/06/15 11:30:42;;;;;;;6.23;2.40;;;28.20;34.90;;;;;;5051274;28;20051;-68
2023/06/15 11:33:12;;;;;;;4.17;2.00;;;28.30;34.70;;;;;;5052845;28;20338;-68
2023/06/15 11:35:41;;;;;;;5.03;2.00;;;28.40;34.40;;;;;;5052446;28;20041;-68
2023/06/15 11:38:07;;;;;;;3.50;1.80;;;28.40;34.80;;;;;;5052834;28;20297;-68
2023/06/15 11:40:34;;;;;;;2.33;1.60;;;28.50;34.20;;;;;;5035149;28;20056;-68
2023/06/15 11:43:02;;;;;;;4.03;2.07;;;28.50;34.70;;;;;;5051202;28;20048;-68
2023/06/15 11:45:28;;;;;;;5.17;1.90;;;28.60;35.20;;;;;;5050566;28;20041;-68
2023/06/15 11:47:54;;;;;;;4.50;2.03;;;28.70;34.10;;;;;;5052695;28;20098;-68
2023/06/15 11:50:20;;;;;;;2.43;1.83;;;28.70;34.10;;;;;;5052251;28;20120;-68
2023/06/15 11:52:46;;;;;;;5.03;1.90;;;28.70;34.00;;;;;;5052560;28;20163;-68
2023/06/15 11:55:15;;;;;;;4.23;1.90;;;28.80;33.40;;;;;;5052241;28;20091;-68
2023/06/15 11:57:44;;;;;;;4.80;1.73;;;28.70;34.60;;;;;;5050503;28;20037;-68
2023/06/15 12:00:13;;;;;;;4.37;2.27;;;28.80;34.20;;;;;;5052791;28;20352;-68
2023/06/15 12:02:42;;;;;;;4.40;2.23;;;28.80;34.00;;;;;;5035864;28;20068;-68
2023/06/15 12:05:11;;;;;;;3.93;2.10;;;28.80;33.60;;;;;;5052748;28;20493;-68
2023/06/15 12:07:38;;;;;;;2.53;2.17;;;28.90;32.70;;;;;;5052248;28;20318;-68
2023/06/15 12:10:06;;;;;;;4.07;2.07;;;28.60;33.10;;;;;;5035644;28;20076;-68
2023/06/15 12:12:33;;;;;;;5.67;2.40;;;28.30;32.70;;;;;;5052224;28;20132;-68
2023/06/15 12:15:05;;;;;;;5.13;2.10;;;28.00;32.80;;;;;;5052397;28;20040;-68
2023/06/15 12:17:35;;;;;;;4.10;2.00;;;27.90;33.70;;;;;;5051230;28;20384;-68
2023/06/15 12:20:08;;;;;;;5.30;1.90;;;28.20;34.20;;;;;;5051682;28;20039;-68
2023/06/15 12:22:44;;;;;;;5.67;2.00;;;28.40;34.20;;;;;;5064543;28;20144;-68
2023/06/15 12:25:11;;;;;;;4.80;1.93;;;28.60;34.50;;;;;;5047232;28;20045;-68
2023/06/15 12:27:41;;;;;;;2.83;2.10;;;28.70;33.80;;;;;;5051210;28;20058;-68
2023/06/15 12:30:11;;;;;;;4.13;2.30;;;28.60;33.50;;;;;;5043145;28;20623;-68
2023/06/15 12:32:45;;;;;;;4.43;2.30;;;28.30;33.40;;;;;;5050216;28;20064;-68
2023/06/15 12:35:31;;;;;;;6.00;1.85;;;28.20;32.60;;;;;;5045938;28;20099;-68
2023/06/15 12:37:57;;;;;;;4.33;2.10;;;28.30;34.60;;;;;;5051609;28;20032;-68
2023/06/15 12:40:23;;;;;;;3.50;2.03;;;28.60;32.80;;;;;;5054146;28;20520;-68
2023/06/15 12:43:00;;;;;;;4.67;2.20;;;28.80;33.00;;;;;;5053513;28;20048;-68
2023/06/15 12:45:26;;;;;;;3.10;2.20;;;28.90;33.00;;;;;;5051795;28;20414;-68
2023/06/15 12:47:53;;;;;;;5.73;1.90;;;28.90;32.70;;;;;;5051190;28;20162;-68